Time;durP1;ratioP1;P1;durP2;ratioP2;P2;SDS_P1;SDS_P2;PMS_P1;PMS_P2;Temp;Humidity;BMP_temperature;BMP_pressure;BME280_temperature;BME280_humidity;BME280_pressure;Samples;Min_cycle;Max_cycle;Signal;HPM_P1;HPM_P2
2022/04/06 00:01:44;;;;;;;16.38;8.90;;;;;;;9.28;100.00;97858.00;5044136;28;20348;-69
2022/04/06 00:04:10;;;;;;;15.68;8.68;;;;;;;9.25;100.00;97858.09;5044354;28;20017;-69
2022/04/06 00:06:35;;;;;;;17.13;8.80;;;;;;;9.26;100.00;97849.28;5044104;28;20049;-69
2022/04/06 00:09:02;;;;;;;19.67;9.02;;;;;;;9.32;100.00;97847.38;5046278;28;20018;-69
2022/04/06 00:11:27;;;;;;;15.93;7.82;;;;;;;9.34;100.00;97844.72;5043941;28;20049;-69
2022/04/06 00:13:53;;;;;;;18.63;9.68;;;;;;;9.28;100.00;97840.50;5043963;28;20128;-69
2022/04/06 00:16:18;;;;;;;22.58;8.77;;;;;;;9.25;100.00;97839.69;5043949;28;20025;-69
2022/04/06 00:18:44;;;;;;;15.43;8.57;;;;;;;9.24;100.00;97838.00;5043883;28;20084;-69
2022/04/06 00:21:11;;;;;;;14.63;7.88;;;;;;;9.34;100.00;97844.72;5045381;28;20030;-69
2022/04/06 00:23:37;;;;;;;16.00;8.80;;;;;;;9.28;100.00;97840.50;5063243;28;20078;-69
2022/04/06 00:26:02;;;;;;;19.48;8.73;;;;;;;9.26;100.00;97833.53;5063238;28;20029;-69
2022/04/06 00:28:28;;;;;;;16.45;9.02;;;;;;;9.24;100.00;97838.00;5063053;28;20017;-69
2022/04/06 00:30:53;;;;;;;13.07;7.68;;;;;;;9.28;100.00;97839.63;5063190;28;20025;-69
2022/04/06 00:33:18;;;;;;;24.52;8.63;;;;;;;9.24;100.00;97832.75;5062348;28;20107;-69
2022/04/06 00:35:44;;;;;;;17.80;8.10;;;;;;;9.24;100.00;97830.94;5055172;28;20029;-69
2022/04/06 00:38:10;;;;;;;17.02;9.18;;;;;;;9.24;100.00;97828.31;5063371;28;20044;-69
2022/04/06 00:40:36;;;;;;;17.15;8.40;;;;;;;9.17;100.00;97820.69;5052366;28;20021;-69
2022/04/06 00:43:07;;;;;;;16.35;8.55;;;;;;;9.20;100.00;97820.59;5048872;28;20025;-69
2022/04/06 00:45:33;;;;;;;15.82;7.65;;;;;;;9.21;100.00;97817.06;5058875;28;20020;-69
2022/04/06 00:47:58;;;;;;;16.30;8.95;;;;;;;9.22;100.00;97816.16;5047671;28;20366;-69
2022/04/06 00:50:24;;;;;;;15.07;8.18;;;;;;;9.23;100.00;97817.88;5047632;28;20025;-69
2022/04/06 00:52:57;;;;;;;17.60;9.00;;;;;;;9.22;100.00;97818.78;5047562;28;20021;-69
2022/04/06 00:55:29;;;;;;;17.30;9.63;;;;;;;9.24;100.00;97811.72;5048755;28;20088;-69
2022/04/06 00:57:56;;;;;;;14.73;7.63;;;;;;;9.22;100.00;97813.53;5050414;28;20036;-69
2022/04/06 01:00:21;;;;;;;16.08;8.40;;;;;;;9.23;100.00;97815.25;5047570;28;20036;-69
2022/04/06 01:02:47;;;;;;;17.30;8.43;;;;;;;9.24;100.00;97809.09;5048296;28;20229;-69
2022/04/06 01:05:13;;;;;;;16.15;9.20;;;;;;;9.17;100.00;97810.19;5047405;28;20293;-69
2022/04/06 01:07:40;;;;;;;17.05;9.23;;;;;;;9.24;100.00;97809.09;5050213;28;20017;-69
2022/04/06 01:10:06;;;;;;;17.95;8.93;;;;;;;9.26;100.00;97804.66;5052241;28;20017;-69
2022/04/06 01:12:34;;;;;;;16.80;9.38;;;;;;;9.32;100.00;97804.50;5047281;28;20339;-69
2022/04/06 01:14:59;;;;;;;17.40;9.77;;;;;;;9.26;100.00;97799.41;5051413;28;20021;-69
2022/04/06 01:17:32;;;;;;;18.33;8.68;;;;;;;9.29;100.00;97801.94;5066613;28;20020;-69
2022/04/06 01:19:57;;;;;;;22.38;10.05;;;;;;;9.28;100.00;97792.38;5066546;28;20024;-69
2022/04/06 01:22:23;;;;;;;17.92;8.63;;;;;;;9.24;100.00;97801.22;5066583;28;20228;-69
2022/04/06 01:24:48;;;;;;;20.63;10.73;;;;;;;9.22;100.00;97798.66;5066220;28;20025;-69
2022/04/06 01:27:14;;;;;;;16.13;9.25;;;;;;;9.20;100.00;97800.44;5065327;28;20308;-69
2022/04/06 01:29:41;;;;;;;24.50;10.35;;;;;;;9.29;100.00;97794.94;5066120;28;20024;-69
2022/04/06 01:32:19;;;;;;;21.05;10.10;;;;;;;9.27;100.00;97802.00;5065985;28;20044;-69
2022/04/06 01:34:45;;;;;;;18.98;10.10;;;;;;;9.31;100.00;97802.78;5064791;28;20375;-69
2022/04/06 01:37:13;;;;;;;19.63;9.43;;;;;;;9.35;100.00;97794.78;5065082;28;20055;-69
2022/04/06 01:39:40;;;;;;;22.98;10.85;;;;;;;9.33;100.00;97791.31;5063530;28;20029;-69
2022/04/06 01:42:07;;;;;;;20.35;10.88;;;;;;;9.31;100.00;97792.28;5064700;28;20257;-69
2022/04/06 01:44:33;;;;;;;24.90;10.98;;;;;;;9.27;100.00;97791.50;5064891;28;20124;-69
2022/04/06 01:47:05;;;;;;;21.30;10.40;;;;;;;9.26;100.00;97788.91;5064640;28;20029;-69
2022/04/06 01:52:35;;;;;;;18.23;9.00;;;;;;;9.27;100.00;97780.16;5056739;28;20324;-69
2022/04/06 01:55:07;;;;;;;24.13;10.73;;;;;;;9.24;100.00;97780.22;5063041;28;20036;-69
2022/04/06 01:57:33;;;;;;;16.88;9.38;;;;;;;9.29;100.00;97773.06;5053819;28;20110;-69
2022/04/06 02:00:00;;;;;;;23.58;11.63;;;;;;;9.27;100.00;97777.53;5045187;28;20321;-69
2022/04/06 02:02:28;;;;;;;20.33;10.15;;;;;;;9.23;100.00;97775.84;5046389;28;20019;-69
2022/04/06 02:04:54;;;;;;;21.10;11.07;;;;;;;9.25;100.00;97777.56;5045163;28;20024;-69
2022/04/06 02:07:19;;;;;;;21.63;11.55;;;;;;;9.25;100.00;97776.69;5045180;28;20021;-69
2022/04/06 02:09:45;;;;;;;25.23;10.70;;;;;;;9.21;100.00;97772.44;5046285;28;20256;-69
2022/04/06 02:12:11;;;;;;;25.52;11.65;;;;;;;9.20;100.00;97768.94;5045005;28;20025;-69
2022/04/06 02:14:41;;;;;;;28.25;12.30;;;;;;;9.21;100.00;97761.94;5053130;28;20092;-69
2022/04/06 02:17:08;;;;;;;21.17;12.05;;;;;;;9.22;100.00;97761.03;5044991;28;20217;-69
2022/04/06 02:19:36;;;;;;;20.42;10.30;;;;;;;9.20;100.00;97768.09;5045325;28;20309;-69
2022/04/06 02:22:02;;;;;;;18.98;10.38;;;;;;;9.26;100.00;97762.66;5045105;28;20248;-69
2022/04/06 02:24:27;;;;;;;19.98;10.38;;;;;;;9.18;100.00;97755.00;5044926;28;20013;-69
2022/04/06 02:26:53;;;;;;;18.33;10.18;;;;;;;9.23;100.00;97752.22;5046020;28;20028;-69
2022/04/06 02:29:18;;;;;;;22.27;11.13;;;;;;;9.24;100.00;97759.22;5044805;28;20332;-69
2022/04/06 02:31:44;;;;;;;22.95;11.38;;;;;;;9.22;100.00;97756.66;5005416;28;1127719;-69
2022/04/06 02:34:09;;;;;;;22.40;11.45;;;;;;;9.22;100.00;97755.78;5045980;28;20088;-69
2022/04/06 02:36:34;;;;;;;21.52;10.68;;;;;;;9.27;100.00;97756.53;5061365;28;20028;-69
2022/04/06 02:39:00;;;;;;;22.55;10.32;;;;;;;9.29;100.00;97757.31;5063398;28;20044;-69
2022/04/06 02:41:26;;;;;;;24.10;10.73;;;;;;;9.23;100.00;97752.22;5064954;28;20016;-69
2022/04/06 02:43:52;;;;;;;23.15;11.48;;;;;;;9.27;100.00;97753.88;5063636;28;20063;-69
2022/04/06 02:46:17;;;;;;;22.25;10.93;;;;;;;9.27;100.00;97738.97;5064913;28;20088;-69
2022/04/06 02:48:43;;;;;;;22.70;11.35;;;;;;;9.24;100.00;97748.72;5055629;28;20028;-69
2022/04/06 02:51:08;;;;;;;18.08;9.68;;;;;;;9.22;100.00;97742.66;5058408;28;20359;-69
2022/04/06 02:53:34;;;;;;;22.92;11.65;;;;;;;9.20;100.00;97741.84;5045328;28;20047;-69
2022/04/06 02:55:59;;;;;;;21.40;10.20;;;;;;;9.26;100.00;97736.41;5045289;28;20025;-69
2022/04/06 02:58:25;;;;;;;23.77;11.13;;;;;;;9.26;100.00;97731.16;5045185;28;20222;-69
2022/04/06 03:00:50;;;;;;;20.60;10.15;;;;;;;9.24;100.00;97733.81;5044820;28;20071;-69
2022/04/06 03:03:16;;;;;;;20.02;10.60;;;;;;;9.24;100.00;97730.34;5045986;28;20025;-69
2022/04/06 03:05:41;;;;;;;23.83;10.40;;;;;;;9.22;100.00;97727.75;5045253;28;20029;-69
2022/04/06 03:08:07;;;;;;;23.33;10.05;;;;;;;9.21;100.00;97733.91;5052025;28;20085;-69
2022/04/06 03:10:33;;;;;;;20.70;10.38;;;;;;;9.24;100.00;97733.81;5062727;28;20020;-69
2022/04/06 03:12:58;;;;;;;20.25;10.52;;;;;;;9.24;100.00;97725.09;5044991;28;20224;-69
2022/04/06 03:15:24;;;;;;;23.52;10.85;;;;;;;9.21;100.00;97719.94;5060684;28;20340;-69
2022/04/06 03:17:49;;;;;;;20.08;10.82;;;;;;;9.17;100.00;97726.19;5045489;28;20036;-69
2022/04/06 03:20:14;;;;;;;20.85;10.07;;;;;;;9.22;100.00;97724.25;5044847;28;20071;-69
2022/04/06 03:22:41;;;;;;;20.20;11.07;;;;;;;9.22;100.00;97726.88;5044820;28;20312;-69
2022/04/06 03:25:07;;;;;;;20.48;10.30;;;;;;;9.23;100.00;97720.72;5044934;28;20037;-68
2022/04/06 03:27:34;;;;;;;20.92;10.52;;;;;;;9.24;100.00;97722.47;5062777;28;20025;-69
2022/04/06 03:30:00;;;;;;;23.75;10.45;;;;;;;9.30;100.00;97711.78;5064121;28;20080;-69
2022/04/06 03:32:26;;;;;;;27.15;11.45;;;;;;;9.36;100.00;97715.09;5063918;28;20266;-69
2022/04/06 03:34:52;;;;;;;20.65;9.68;;;;;;;9.28;100.00;97714.47;5063713;28;20247;-69
2022/04/06 03:37:17;;;;;;;26.88;11.07;;;;;;;9.27;100.00;97711.88;5062635;28;20021;-69
2022/04/06 03:39:43;;;;;;;20.67;11.43;;;;;;;9.17;100.00;97716.53;5063570;28;20025;-69
2022/04/06 03:42:08;;;;;;;22.88;11.23;;;;;;;9.16;100.00;97709.56;5063900;28;20094;-69
2022/04/06 03:44:34;;;;;;;22.88;11.05;;;;;;;9.15;100.00;97717.47;5063871;28;20048;-69
2022/04/06 03:47:00;;;;;;;23.35;10.85;;;;;;;9.29;100.00;97708.28;5063541;28;20328;-69
2022/04/06 03:49:25;;;;;;;21.30;10.82;;;;;;;9.21;100.00;97706.81;5059421;28;20025;-69
2022/04/06 03:51:51;;;;;;;20.88;10.73;;;;;;;9.23;100.00;97710.22;5044313;28;20033;-69
2022/04/06 03:54:16;;;;;;;20.35;10.20;;;;;;;9.21;100.00;97706.81;5044514;28;20021;-69
2022/04/06 03:56:42;;;;;;;22.27;10.32;;;;;;;9.16;100.00;97703.44;5044299;28;20368;-69
2022/04/06 03:59:07;;;;;;;23.92;11.52;;;;;;;9.24;100.00;97707.56;5044173;28;20049;-69
2022/04/06 04:01:35;;;;;;;21.63;11.27;;;;;;;9.17;100.00;97699.94;5045316;28;20029;-69
2022/04/06 04:04:01;;;;;;;22.40;11.32;;;;;;;9.12;100.00;97696.56;5044194;28;20055;-69
2022/04/06 04:06:27;;;;;;;21.75;11.07;;;;;;;9.17;100.00;97699.94;5060400;28;20063;-69
2022/04/06 04:08:52;;;;;;;22.58;10.60;;;;;;;9.15;100.00;97697.34;5063109;28;20079;-69
2022/04/06 04:11:18;;;;;;;25.33;11.68;;;;;;;9.12;100.00;97691.31;5063370;28;20028;-69
2022/04/06 04:13:43;;;;;;;20.83;9.73;;;;;;;9.12;100.00;97701.81;5051919;28;20112;-69
2022/04/06 04:16:08;;;;;;;19.40;9.60;;;;;;;9.07;100.00;97693.19;5056019;28;20028;-69
2022/04/06 04:18:35;;;;;;;20.70;10.82;;;;;;;9.06;100.00;97696.72;5062375;28;20053;-69
2022/04/06 04:23:44;;;;;;;18.38;9.35;;;;;;;9.03;100.00;97691.56;5062147;28;20123;-69
2022/04/06 04:26:10;;;;;;;20.55;9.60;;;;;;;9.02;100.00;97684.59;5060890;28;20292;-69
2022/04/06 04:28:35;;;;;;;27.75;10.50;;;;;;;9.02;100.00;97684.59;5062120;28;20044;-69
2022/04/06 04:31:01;;;;;;;20.30;9.80;;;;;;;9.06;100.00;97683.59;5061432;28;20028;-69
2022/04/06 04:33:27;;;;;;;16.95;9.32;;;;;;;9.06;100.00;97680.97;5042810;28;20049;-69
2022/04/06 04:35:52;;;;;;;25.67;11.13;;;;;;;9.02;100.00;97668.88;5043438;28;20081;-69
2022/04/06 04:38:18;;;;;;;19.25;9.48;;;;;;;9.04;100.00;97673.16;5055761;28;20394;-69
2022/04/06 04:40:43;;;;;;;20.40;9.45;;;;;;;9.09;100.00;97680.91;5062889;28;20316;-69
2022/04/06 04:43:09;;;;;;;17.58;9.23;;;;;;;9.07;100.00;97680.06;5063659;28;20021;-69
2022/04/06 04:45:34;;;;;;;23.33;9.57;;;;;;;9.02;100.00;97674.09;5062621;28;20028;-69
2022/04/06 04:48:00;;;;;;;20.33;9.73;;;;;;;9.00;100.00;97673.28;5063564;28;20025;-69
2022/04/06 04:50:25;;;;;;;14.93;8.27;;;;;;;9.02;100.00;97676.72;5063798;28;20017;-69
2022/04/06 04:52:51;;;;;;;17.08;9.43;;;;;;;8.98;100.00;97677.72;5063546;28;20320;-69
2022/04/06 04:55:18;;;;;;;16.85;8.13;;;;;;;9.01;100.00;97675.03;5063542;28;20024;-69
2022/04/06 04:57:43;;;;;;;17.65;8.38;;;;;;;9.05;100.00;97669.63;5063785;28;20193;-69
2022/04/06 05:00:10;;;;;;;16.80;8.75;;;;;;;9.03;100.00;97670.56;5063448;28;20048;-69
2022/04/06 05:02:38;;;;;;;15.50;8.18;;;;;;;9.06;100.00;97678.34;5063464;28;20048;-69
2022/04/06 05:05:05;;;;;;;20.13;8.65;;;;;;;9.03;100.00;97670.56;5063461;28;20017;-69
2022/04/06 05:07:31;;;;;;;18.42;9.50;;;;;;;9.01;100.00;97672.41;5063423;28;20024;-69
2022/04/06 05:09:56;;;;;;;15.45;7.18;;;;;;;9.04;100.00;97669.66;5063350;28;20052;-69
2022/04/06 05:12:22;;;;;;;19.70;9.45;;;;;;;9.06;100.00;97670.47;5063409;28;20062;-69
2022/04/06 05:14:47;;;;;;;17.15;8.65;;;;;;;9.11;100.00;97671.22;5063451;28;20156;-68
2022/04/06 05:17:13;;;;;;;16.02;8.65;;;;;;;9.04;100.00;97667.03;5063326;28;20044;-69
2022/04/06 05:19:38;;;;;;;17.05;8.10;;;;;;;9.09;100.00;97665.16;5063241;28;20035;-69
2022/04/06 05:22:04;;;;;;;15.52;8.57;;;;;;;9.17;100.00;97663.19;5063284;28;20088;-69
2022/04/06 05:24:29;;;;;;;17.33;8.43;;;;;;;9.03;100.00;97670.56;5063658;28;20025;-69
2022/04/06 05:26:55;;;;;;;15.38;7.90;;;;;;;9.17;100.00;97661.38;5067016;28;20100;-69
2022/04/06 05:29:21;;;;;;;19.10;8.70;;;;;;;9.14;100.00;97665.88;5066966;28;20049;-69
2022/04/06 05:31:46;;;;;;;19.13;9.73;;;;;;;9.08;100.00;97671.31;5066755;28;20220;-69
2022/04/06 05:34:11;;;;;;;19.80;10.25;;;;;;;9.07;100.00;97666.94;5066808;28;20024;-69
2022/04/06 05:36:37;;;;;;;19.33;9.52;;;;;;;9.13;100.00;97666.78;5066821;28;20041;-69
2022/04/06 05:39:03;;;;;;;20.17;9.02;;;;;;;9.12;100.00;97662.44;5066666;28;20080;-69
2022/04/06 05:41:29;;;;;;;18.30;9.55;;;;;;;9.15;100.00;97671.09;5066729;28;20169;-69
2022/04/06 05:43:54;;;;;;;19.92;8.93;;;;;;;9.14;100.00;97663.25;5066921;28;20036;-69
2022/04/06 05:46:20;;;;;;;21.13;10.55;;;;;;;9.13;100.00;97661.53;5066589;28;20025;-69
2022/04/06 05:48:45;;;;;;;23.75;10.00;;;;;;;9.15;100.00;97664.97;5066656;28;20253;-69
2022/04/06 05:51:11;;;;;;;19.13;9.25;;;;;;;9.13;100.00;97666.78;5066497;28;20328;-69
2022/04/06 05:53:36;;;;;;;18.45;9.75;;;;;;;9.19;100.00;97663.97;5066476;28;20078;-69
2022/04/06 05:56:01;;;;;;;18.08;9.50;;;;;;;9.23;100.00;97669.09;5066427;28;20269;-69
2022/04/06 05:58:27;;;;;;;20.98;9.32;;;;;;;9.16;100.00;97666.69;5066306;28;20094;-69
2022/04/06 06:00:52;;;;;;;19.05;9.13;;;;;;;9.21;100.00;97665.63;5066321;28;20063;-69
2022/04/06 06:03:18;;;;;;;13.52;8.48;;;;;;;9.20;100.00;97663.09;5066256;28;20071;-69
2022/04/06 06:05:43;;;;;;;16.88;9.05;;;;;;;9.24;100.00;97669.97;5066267;28;20028;-69
2022/04/06 06:08:09;;;;;;;15.73;7.85;;;;;;;9.24;100.00;97662.09;5066449;28;20020;-69
2022/04/06 06:10:34;;;;;;;16.75;8.15;;;;;;;9.30;100.00;97664.53;5066086;28;20167;-69
2022/04/06 06:13:00;;;;;;;17.77;9.05;;;;;;;9.30;100.00;97664.53;5066120;28;20035;-69
2022/04/06 06:15:25;;;;;;;15.70;7.28;;;;;;;9.31;100.00;97671.50;5066131;28;20084;-69
2022/04/06 06:17:52;;;;;;;13.63;7.55;;;;;;;9.33;100.00;97664.44;5066259;28;20024;-69
2022/04/06 06:20:18;;;;;;;16.08;7.60;;;;;;;9.35;100.00;97670.50;5065831;28;20029;-69
2022/04/06 06:22:44;;;;;;;12.80;7.60;;;;;;;9.37;100.00;97666.06;5066034;28;20089;-69
2022/04/06 06:25:09;;;;;;;17.02;8.10;;;;;;;9.38;100.00;97662.53;5065875;28;20025;-69
2022/04/06 06:27:39;;;;;;;16.30;8.02;;;;;;;9.38;100.00;97667.78;5065835;28;20025;-69
2022/04/06 06:30:06;;;;;;;14.45;8.18;;;;;;;9.45;100.00;97669.31;5065781;28;20028;-69
2022/04/06 06:32:31;;;;;;;13.60;7.30;;;;;;;9.48;100.00;97663.97;5065582;28;20051;-69
2022/04/06 06:34:57;;;;;;;14.48;7.18;;;;;;;9.47;100.00;97667.50;5065697;28;20028;-69
2022/04/06 06:37:22;;;;;;;13.55;6.88;;;;;;;9.51;100.00;97661.25;5063301;28;20037;-69
2022/04/06 06:39:47;;;;;;;17.27;7.78;;;;;;;9.43;100.00;97655.38;5065569;28;20028;-69
2022/04/06 06:42:13;;;;;;;14.00;7.68;;;;;;;9.32;100.00;97662.69;5065611;28;20047;-69
2022/04/06 06:44:38;;;;;;;15.63;6.78;;;;;;;9.40;100.00;97666.81;5065519;28;20268;-69
2022/04/06 06:47:04;;;;;;;16.63;7.47;;;;;;;9.42;100.00;97665.00;5065727;28;20059;-69
2022/04/06 06:49:29;;;;;;;12.02;6.38;;;;;;;9.46;100.00;97665.78;5065410;28;20024;-69
2022/04/06 06:51:55;;;;;;;16.95;6.78;;;;;;;9.50;100.00;97667.41;5065433;28;20048;-69
2022/04/06 06:54:20;;;;;;;14.10;6.57;;;;;;;9.49;100.00;97663.06;5065355;28;20029;-69
2022/04/06 06:56:46;;;;;;;14.45;6.85;;;;;;;9.51;100.00;97663.88;5065577;28;20088;-69
2022/04/06 06:59:11;;;;;;;14.68;7.07;;;;;;;9.74;100.00;97667.50;5065416;28;20031;-69
2022/04/06 07:01:36;;;;;;;14.05;7.05;;;;;;;9.90;100.00;97674.00;5065216;28;20259;-69
2022/04/06 07:04:02;;;;;;;9.85;5.60;;;;;;;10.08;100.00;97662.94;5065129;28;20024;-69
2022/04/06 07:06:27;;;;;;;17.25;6.22;;;;;;;10.26;100.00;97664.97;5065144;28;20070;-69
2022/04/06 07:08:53;;;;;;;14.27;6.00;;;;;;;10.27;99.71;97652.66;5065106;28;20045;-69
2022/04/06 07:11:19;;;;;;;8.90;4.85;;;;;;;10.36;95.55;97653.22;5064864;28;20065;-69
2022/04/06 07:13:44;;;;;;;9.05;4.25;;;;;;;10.31;94.21;97654.25;5065044;28;20039;-69
2022/04/06 07:16:11;;;;;;;16.08;5.25;;;;;;;10.33;95.14;97647.19;5064925;28;20045;-69
2022/04/06 07:18:37;;;;;;;18.40;4.13;;;;;;;10.34;94.84;97651.53;5065050;28;20025;-69
2022/04/06 07:21:03;;;;;;;10.57;4.85;;;;;;;10.36;94.66;97652.34;5064815;28;20324;-69
2022/04/06 07:23:29;;;;;;;9.50;4.40;;;;;;;10.47;94.17;97652.81;5064804;28;20025;-69
2022/04/06 07:25:55;;;;;;;17.23;4.75;;;;;;;10.45;92.53;97647.63;5064791;28;20127;-69
2022/04/06 07:28:20;;;;;;;10.77;4.03;;;;;;;10.45;91.90;97646.78;5064718;28;20048;-69
2022/04/06 07:30:45;;;;;;;12.00;4.38;;;;;;;10.48;92.90;97646.69;5064681;28;20025;-69
2022/04/06 07:33:13;;;;;;;13.20;5.60;;;;;;;10.52;92.99;97640.38;5064431;28;20236;-69
2022/04/06 07:35:39;;;;;;;11.75;4.57;;;;;;;10.57;93.12;97655.09;5064495;28;20052;-69
2022/04/06 07:38:05;;;;;;;10.07;5.03;;;;;;;10.59;92.86;97644.53;5064515;28;20035;-69
2022/04/06 07:40:31;;;;;;;10.32;4.50;;;;;;;10.60;90.73;97651.53;5064397;28;20033;-69
2022/04/06 07:42:56;;;;;;;9.23;4.18;;;;;;;10.90;88.43;97647.78;5064438;28;20052;-69
2022/04/06 07:45:21;;;;;;;13.38;3.97;;;;;;;10.85;89.93;97647.06;5064307;28;20027;-69
2022/04/06 07:47:49;;;;;;;12.82;4.05;;;;;;;10.87;87.58;97642.63;5063993;28;20070;-69
2022/04/06 07:50:16;;;;;;;14.30;4.10;;;;;;;10.82;86.95;97636.66;5064314;28;20024;-69
2022/04/06 07:52:43;;;;;;;10.23;4.05;;;;;;;10.75;87.64;97645.69;5064259;28;20025;-69
2022/04/06 07:55:10;;;;;;;10.40;4.72;;;;;;;10.74;88.18;97644.00;5064191;28;20035;-69
2022/04/06 07:57:36;;;;;;;13.75;4.22;;;;;;;10.59;89.37;97634.00;5064167;28;20062;-69
2022/04/06 08:00:06;;;;;;;13.35;4.13;;;;;;;10.61;89.16;97634.81;5064075;28;20221;-69
2022/04/06 08:02:32;;;;;;;10.85;4.32;;;;;;;10.63;89.04;97635.59;5064107;28;20028;-69
2022/04/06 08:04:58;;;;;;;11.35;4.45;;;;;;;10.63;90.21;97640.84;5064083;28;20024;-69
2022/04/06 08:07:23;;;;;;;9.38;4.70;;;;;;;10.55;90.89;97642.91;5064050;28;20313;-69
2022/04/06 08:09:49;;;;;;;11.35;4.88;;;;;;;10.43;89.77;97644.19;5063987;28;20058;-69
2022/04/06 08:12:15;;;;;;;8.75;3.63;;;;;;;10.49;89.97;97643.13;5063895;28;20028;-69
2022/04/06 08:14:40;;;;;;;13.95;4.47;;;;;;;10.48;89.26;97652.78;5063921;28;20025;-69
2022/04/06 08:17:06;;;;;;;8.30;4.00;;;;;;;10.63;89.26;97646.13;5063940;28;20221;-69
2022/04/06 08:19:31;;;;;;;11.35;4.07;;;;;;;10.85;89.26;97641.81;5063828;28;20084;-69
2022/04/06 08:21:57;;;;;;;10.60;4.68;;;;;;;11.01;88.48;97648.25;5064095;28;20021;-69
2022/04/06 08:24:22;;;;;;;9.75;3.90;;;;;;;11.02;87.42;97644.72;5063833;28;20017;-69
2022/04/06 08:26:48;;;;;;;11.77;3.63;;;;;;;11.17;87.53;97644.13;5063829;28;20071;-69
2022/04/06 08:29:13;;;;;;;8.50;4.50;;;;;;;11.30;87.02;97645.41;5063780;28;20082;-69
2022/04/06 08:31:38;;;;;;;10.23;4.60;;;;;;;11.23;87.38;97643.91;5063778;28;20028;-69
2022/04/06 08:34:05;;;;;;;11.13;4.15;;;;;;;11.21;86.95;97644.88;5062462;28;20094;-69
2022/04/06 08:36:32;;;;;;;8.45;3.75;;;;;;;11.12;87.63;97646.09;5063982;28;20309;-69
2022/04/06 08:38:59;;;;;;;6.25;4.20;;;;;;;11.28;87.13;97643.72;5063627;28;20025;-69
2022/04/06 08:41:26;;;;;;;9.05;4.13;;;;;;;11.46;86.77;97641.28;5063957;28;20020;-69
2022/04/06 08:43:55;;;;;;;11.43;4.68;;;;;;;11.43;86.25;97646.66;5063634;28;20021;-69
2022/04/06 08:46:21;;;;;;;11.63;4.75;;;;;;;11.37;87.12;97652.16;5063644;28;20028;-69
2022/04/06 08:48:48;;;;;;;11.75;4.15;;;;;;;11.38;86.31;97647.72;5063917;28;20035;-69
2022/04/06 08:51:16;;;;;;;10.10;3.97;;;;;;;11.37;85.42;97646.00;5063901;28;20186;-69
2022/04/06 08:53:41;;;;;;;16.48;4.97;;;;;;;11.19;86.74;97647.56;5063564;28;20028;-69
2022/04/06 08:56:07;;;;;;;5.82;3.30;;;;;;;11.16;87.01;97647.69;5063590;28;20213;-69
2022/04/06 08:58:33;;;;;;;10.73;4.13;;;;;;;11.21;86.25;97653.66;5063452;28;20025;-69
2022/04/06 09:00:59;;;;;;;18.38;3.95;;;;;;;11.57;86.44;97644.34;5066339;28;20083;-69
2022/04/06 09:03:25;;;;;;;6.20;3.25;;;;;;;11.69;85.00;97641.25;5067483;28;20027;-69
2022/04/06 09:06:07;;;;;;;9.63;4.18;;;;;;;11.62;85.62;97642.44;5067644;28;20033;-69
2022/04/06 09:08:39;;;;;;;7.30;3.35;;;;;;;11.39;83.48;97646.81;5067364;28;20024;-69
2022/04/06 09:11:11;;;;;;;12.13;3.95;;;;;;;11.25;83.00;97651.75;5067319;28;20255;-69
2022/04/06 09:13:38;;;;;;;;;;;;;;;11.27;82.54;97650.78;5067679;28;20025;-69
2022/04/06 09:16:07;;;;;;;10.70;3.55;;;;;;;11.21;83.90;97644.88;5067149;28;19905;-69
2022/04/06 09:18:38;;;;;;;8.10;3.80;;;;;;;11.04;83.14;97642.88;5067094;28;20311;-69
2022/04/06 09:21:04;;;;;;;8.90;3.93;;;;;;;10.94;84.15;97647.63;5067401;28;20091;-69
2022/04/06 09:23:33;;;;;;;12.40;4.00;;;;;;;10.91;84.94;97642.47;5067090;28;20229;-69
2022/04/06 09:26:13;;;;;;;9.77;4.15;;;;;;;10.74;84.95;97649.25;5067048;28;20088;-69
2022/04/06 09:28:41;;;;;;;10.35;4.05;;;;;;;10.68;85.24;97650.34;5067006;28;20016;-69
2022/04/06 09:31:07;;;;;;;16.42;4.32;;;;;;;10.66;85.93;97652.16;5066891;28;20335;-69
2022/04/06 09:33:34;;;;;;;7.85;3.38;;;;;;;10.62;86.79;97645.28;5066769;28;20040;-69
2022/04/06 09:35:59;;;;;;;13.07;4.78;;;;;;;10.62;87.06;97641.78;5066841;28;20107;-69
2022/04/06 09:38:29;;;;;;;8.00;3.47;;;;;;;10.66;86.33;97644.25;5066990;28;20284;-69
2022/04/06 09:41:03;;;;;;;10.02;3.70;;;;;;;10.82;86.27;97642.78;5066675;28;20032;-69
2022/04/06 09:43:31;;;;;;;8.40;3.78;;;;;;;10.97;85.79;97641.38;5066683;28;20025;-69
2022/04/06 09:49:00;;;;;;;;;;;;;;;11.62;82.01;97631.88;5067059;28;20075;-69
2022/04/06 09:51:26;;;;;;;10.15;3.72;;;;;;;11.96;81.55;97629.59;5066605;28;20208;-69
2022/04/06 09:53:53;;;;;;;13.20;3.22;;;;;;;12.27;78.63;97632.69;5066504;28;20025;-69
2022/04/06 09:56:18;;;;;;;6.55;3.30;;;;;;;12.32;78.75;97630.72;5066444;28;20028;-69
2022/04/06 09:58:45;;;;;;;7.70;3.17;;;;;;;12.15;79.36;97627.91;5066396;28;20025;-69
2022/04/06 10:01:14;;;;;;;7.72;2.97;;;;;;;12.59;77.47;97642.75;5066351;28;20131;-69
2022/04/06 10:03:43;;;;;;;4.82;2.58;;;;;;;12.59;76.12;97618.97;5066263;28;20029;-69
2022/04/06 10:06:10;;;;;;;8.43;2.95;;;;;;;12.54;77.06;97636.81;5066241;28;20029;-68
2022/04/06 10:08:38;;;;;;;10.60;3.67;;;;;;;12.39;77.51;97636.59;5066167;28;20021;-69
2022/04/06 10:11:05;;;;;;;9.82;3.15;;;;;;;11.88;78.22;97629.06;5066091;28;20087;-69
2022/04/06 10:13:32;;;;;;;8.65;2.90;;;;;;;12.03;76.83;97627.56;5066115;28;20029;-69
2022/04/06 10:15:58;;;;;;;7.97;2.83;;;;;;;11.78;76.75;97626.84;5066064;28;20029;-69
2022/04/06 10:18:29;;;;;;;7.53;2.90;;;;;;;11.51;77.71;97620.84;5066231;28;20032;-69
2022/04/06 10:21:19;;;;;;;10.23;2.92;;;;;;;11.42;79.45;97618.56;5066041;28;20025;-69
2022/04/06 10:23:57;;;;;;;5.90;2.88;;;;;;;11.45;80.01;97612.34;5065963;28;20032;-69
2022/04/06 10:26:51;;;;;;;12.52;4.05;;;;;;;11.50;79.67;97611.25;5065872;28;20088;-69
2022/04/06 10:29:16;;;;;;;11.98;3.03;;;;;;;11.35;79.88;97609.19;5065893;28;20320;-69
2022/04/06 10:31:41;;;;;;;11.02;3.67;;;;;;;11.38;80.45;97616.97;5065706;28;20098;-69
2022/04/06 10:34:19;;;;;;;5.75;2.90;;;;;;;11.80;79.86;97610.03;5065630;28;20060;-69
2022/04/06 10:37:06;;;;;;;4.80;2.50;;;;;;;12.19;78.55;97613.72;5065710;28;20073;-69
2022/04/06 10:39:32;;;;;;;7.03;2.97;;;;;;;12.60;76.97;97611.94;5065910;28;20056;-69
2022/04/06 10:42:19;;;;;;;9.30;2.90;;;;;;;12.95;76.79;97606.78;5065582;28;20021;-69
2022/04/06 10:44:44;;;;;;;9.25;3.53;;;;;;;12.89;75.13;97599.16;5065874;28;20029;-69
2022/04/06 10:47:12;;;;;;;7.00;3.38;;;;;;;12.80;74.92;97602.22;5065795;28;20020;-69
2022/04/06 10:49:38;;;;;;;6.43;3.30;;;;;;;12.72;73.27;97600.84;5065728;28;20020;-69
2022/04/06 10:52:25;;;;;;;8.98;2.70;;;;;;;12.49;74.44;97596.56;5065451;28;20398;-69
2022/04/06 10:54:54;;;;;;;7.18;2.72;;;;;;;12.35;75.57;97593.66;5065404;28;20225;-69
2022/04/06 10:57:21;;;;;;;7.38;2.90;;;;;;;12.20;76.61;97589.03;5065405;28;20055;-69
2022/04/06 11:00:13;;;;;;;7.28;3.00;;;;;;;12.04;77.99;97597.63;5065497;28;20052;-69
2022/04/06 11:02:52;;;;;;;8.90;2.63;;;;;;;12.01;78.22;97597.75;5064780;28;20238;-69
2022/04/06 11:05:45;;;;;;;10.43;3.08;;;;;;;12.16;75.91;97595.38;5065208;28;20216;-69
2022/04/06 11:11:47;;;;;;;3.50;2.20;;;;;;;12.33;76.46;97600.78;5064270;28;20267;-69
2022/04/06 11:14:30;;;;;;;4.28;2.25;;;;;;;12.64;75.86;97590.63;5065256;28;20021;-69
2022/04/06 11:16:56;;;;;;;14.25;3.38;;;;;;;12.50;73.99;97577.16;5064948;28;20067;-69
2022/04/06 11:19:21;;;;;;;5.35;2.65;;;;;;;12.67;75.38;97590.47;5064850;28;20017;-69
2022/04/06 11:21:48;;;;;;;5.30;2.05;;;;;;;12.54;75.24;97584.03;5064705;28;20031;-69
2022/04/06 11:24:27;;;;;;;3.80;2.17;;;;;;;12.48;75.39;97584.28;5064563;28;20020;-69
2022/04/06 11:26:53;;;;;;;3.65;2.25;;;;;;;12.71;74.46;97581.50;5064738;28;20025;-69
2022/04/06 11:29:19;;;;;;;4.03;2.28;;;;;;;12.89;75.49;97579.81;5064708;28;20328;-69
2022/04/06 11:32:04;;;;;;;7.53;2.40;;;;;;;12.82;72.22;97573.94;5064523;28;20032;-69
2022/04/06 11:34:38;;;;;;;5.00;2.10;;;;;;;12.43;73.69;97575.72;5064695;28;20025;-69
2022/04/06 11:37:06;;;;;;;7.07;2.00;;;;;;;12.35;73.75;97582.25;5064831;28;20308;-69